Time;durP1;ratioP1;P1;durP2;ratioP2;P2;SDS_P1;SDS_P2;PMS_P1;PMS_P2;Temp;Humidity;BMP_temperature;BMP_pressure;BME280_temperature;BME280_humidity;BME280_pressure;Samples;Min_cycle;Max_cycle;Signal;HPM_P1;HPM_P2
2022/08/18 00:01:25;;;;;;;10.00;6.20;;;;;;;23.90;61.29;98698.16;25090;1313;3051580;-58
2022/08/18 00:03:54;;;;;;;12.40;6.10;;;;;;;23.68;61.78;98700.98;25097;1316;3030040;-59
2022/08/18 00:06:23;;;;;;;10.60;5.70;;;;;;;23.40;62.75;98702.33;25041;1314;3048095;-58
2022/08/18 00:08:52;;;;;;;8.80;5.80;;;;;;;23.17;63.38;98706.50;25108;1316;3026689;-59
2022/08/18 00:11:22;;;;;;;10.50;5.90;;;;;;;23.06;63.97;98704.86;25041;1316;3070648;-60
2022/08/18 00:13:52;;;;;;;9.00;6.20;;;;;;;23.01;63.88;98708.27;25030;1313;3026790;-59
2022/08/18 00:16:21;;;;;;;11.30;5.90;;;;;;;23.01;63.63;98702.92;25118;1316;3026192;-58
2022/08/18 00:18:50;;;;;;;11.30;6.30;;;;;;;22.89;64.01;98706.27;25047;1314;3070950;-56
2022/08/18 00:21:19;;;;;;;10.50;6.40;;;;;;;22.87;63.69;98705.27;25062;1313;3026883;-58
2022/08/18 00:23:48;;;;;;;11.20;6.00;;;;;;;22.84;63.69;98702.55;25092;1316;3027068;-61
2022/08/18 00:26:17;;;;;;;10.70;6.00;;;;;;;22.75;64.11;98701.32;25037;1316;3069876;-58
2022/08/18 00:28:46;;;;;;;9.80;5.70;;;;;;;22.66;64.26;98694.19;25081;1316;3028326;-60
2022/08/18 00:31:15;;;;;;;11.30;5.80;;;;;;;22.64;64.27;98698.23;25040;1316;3053481;-59
2022/08/18 00:33:44;;;;;;;8.30;4.30;;;;;;;22.65;64.88;98704.64;25078;1314;3026539;-59
2022/08/18 00:36:13;;;;;;;6.80;4.70;;;;;;;23.28;63.58;98701.27;25063;1313;3055679;-61
2022/08/18 00:38:42;;;;;;;8.00;4.90;;;;;;;23.57;62.43;98698.48;25129;1314;3026938;-61
2022/08/18 00:41:11;;;;;;;12.60;6.00;;;;;;;23.53;62.85;98697.92;25055;1315;3048251;-59
2022/08/18 00:43:48;;;;;;;10.00;6.30;;;;;;;23.30;63.27;98692.92;25135;1313;3026923;-59
2022/08/18 00:46:20;;;;;;;10.90;5.90;;;;;;;23.25;63.32;98695.73;25063;1313;3052005;-60
2022/08/18 00:48:50;;;;;;;11.70;6.10;;;;;;;23.22;62.92;98698.23;25062;1312;3029023;-59
2022/08/18 00:51:25;;;;;;;10.90;6.40;;;;;;;23.10;62.93;98692.75;25035;1313;3026777;-58
2022/08/18 00:54:13;;;;;;;11.00;6.10;;;;;;;22.98;63.33;98694.77;25097;1316;3055356;-57
2022/08/18 00:56:45;;;;;;;8.30;5.90;;;;;;;22.76;64.17;98696.98;25124;1316;3052331;-59
2022/08/18 00:59:40;;;;;;;10.70;5.50;;;;;;;22.61;64.59;98696.44;25141;1316;3026539;-58
2022/08/18 01:02:21;;;;;;;12.40;6.70;;;;;;;22.49;65.75;98689.35;25049;1313;3052747;-58
2022/08/18 01:04:54;;;;;;;8.70;5.00;;;;;;;22.44;66.47;98685.70;25119;1314;3055257;-59
2022/08/18 01:07:45;;;;;;;11.40;6.20;;;;;;;23.23;64.83;98685.80;25042;1316;3028164;-59
2022/08/18 01:10:19;;;;;;;11.50;6.40;;;;;;;23.51;63.72;98683.52;25037;1316;3069773;-59
2022/08/18 01:12:51;;;;;;;10.00;6.70;;;;;;;23.34;63.91;98686.65;25117;1316;3029787;-57
2022/08/18 01:15:21;;;;;;;13.30;7.70;;;;;;;22.92;65.05;98686.60;25086;1316;3026413;-60
2022/08/18 01:23:35;;;;;;;11.70;8.00;;;;;;;22.42;67.30;98683.50;25070;1312;3052847;-58
2022/08/18 01:26:05;;;;;;;7.80;4.90;;;;;;;22.31;68.83;98692.55;25020;1316;3026707;-59
2022/08/18 01:28:40;;;;;;;11.30;6.40;;;;;;;22.84;68.41;98690.23;25047;1316;3059433;-58
2022/08/18 01:31:10;;;;;;;8.90;6.50;;;;;;;23.21;67.14;98686.88;25064;1313;3049868;-59
2022/08/18 01:33:42;;;;;;;12.50;7.40;;;;;;;23.19;66.93;98686.38;25109;1316;3026773;-58
2022/08/18 01:36:17;;;;;;;17.00;9.40;;;;;;;23.16;67.59;98687.91;25069;1316;3026455;-57
2022/08/18 01:38:49;;;;;;;13.00;7.90;;;;;;;22.95;68.15;98688.94;25057;1316;3070862;-57
2022/08/18 01:41:20;;;;;;;13.40;8.30;;;;;;;22.81;69.30;98688.11;25188;1313;3026473;-59
2022/08/18 01:43:49;;;;;;;10.60;6.20;;;;;;;22.59;71.66;98687.97;25102;1313;3026852;-57
2022/08/18 01:46:20;;;;;;;11.60;6.60;;;;;;;22.95;71.20;98691.15;25123;1313;3026429;-58
2022/08/18 01:48:49;;;;;;;13.40;7.40;;;;;;;23.28;70.21;98685.98;25068;1313;3048413;-61
2022/08/18 01:51:20;;;;;;;12.00;8.30;;;;;;;23.36;69.40;98688.58;25119;1313;3026411;-58
2022/08/18 01:53:49;;;;;;;11.90;8.50;;;;;;;23.24;69.63;98686.54;25083;1313;3069132;-57
2022/08/18 01:56:18;;;;;;;13.00;8.80;;;;;;;23.09;70.12;98688.36;25099;1313;3025916;-58
2022/08/18 01:58:47;;;;;;;13.10;8.90;;;;;;;22.84;71.53;98688.66;25114;1313;3055232;-59
2022/08/18 02:01:16;;;;;;;9.90;5.90;;;;;;;22.73;72.02;98688.06;25090;1311;3026798;-59
2022/08/18 02:03:48;;;;;;;10.50;7.80;;;;;;;23.20;71.21;98686.29;25129;1313;3054843;-59
2022/08/18 02:06:18;;;;;;;13.40;8.50;;;;;;;23.42;70.45;98683.00;25131;1313;3026363;-57
2022/08/18 02:08:48;;;;;;;16.80;9.80;;;;;;;23.43;70.43;98682.50;25084;1313;3026693;-59
2022/08/18 02:11:17;;;;;;;16.50;10.00;;;;;;;23.26;70.89;98681.27;25113;1313;3026633;-59
2022/08/18 02:13:46;;;;;;;21.30;12.10;;;;;;;23.12;71.29;98685.27;25088;1313;3052556;-60
2022/08/18 02:16:15;;;;;;;19.10;11.20;;;;;;;23.08;70.87;98684.59;25081;1313;3027125;-61
2022/08/18 02:18:45;;;;;;;18.10;11.30;;;;;;;22.94;71.73;98683.12;25121;1313;3053616;-59
2022/08/18 02:21:16;;;;;;;9.50;6.80;;;;;;;22.86;71.82;98682.48;25067;1313;3029155;-61
2022/08/18 02:23:45;;;;;;;12.40;8.20;;;;;;;23.47;70.19;98680.30;25093;1313;3050228;-59
2022/08/18 02:26:16;;;;;;;13.80;9.10;;;;;;;23.84;68.63;98675.77;25132;1313;3026263;-59
2022/08/18 02:28:45;;;;;;;17.60;9.90;;;;;;;23.83;68.13;98681.36;25175;1312;3026409;-60
2022/08/18 02:31:16;;;;;;;17.50;10.50;;;;;;;23.61;68.61;98687.09;25078;1313;3026884;-59
2022/08/18 02:33:45;;;;;;;19.90;10.90;;;;;;;23.42;69.20;98687.08;25108;1313;3028270;-57
2022/08/18 02:36:14;;;;;;;16.20;10.60;;;;;;;23.24;69.54;98689.88;25186;1313;3027045;-59
2022/08/18 02:38:43;;;;;;;19.20;11.50;;;;;;;23.08;69.93;98691.54;25093;1313;3026754;-59
2022/08/18 02:41:13;;;;;;;12.80;6.60;;;;;;;22.95;70.76;98687.54;25146;1313;3051052;-57
2022/08/18 02:43:44;;;;;;;14.60;7.80;;;;;;;23.48;69.39;98689.17;25106;1313;3026842;-59
2022/08/18 02:46:13;;;;;;;12.10;7.70;;;;;;;23.99;67.87;98687.36;25108;1313;3026550;-60
2022/08/18 02:48:42;;;;;;;15.00;9.30;;;;;;;24.08;67.21;98685.09;25132;1313;3051058;-61
2022/08/18 02:51:13;;;;;;;13.40;8.20;;;;;;;23.92;67.52;98685.21;25079;1313;3026650;-60
2022/08/18 02:53:43;;;;;;;13.90;9.30;;;;;;;23.74;67.99;98690.78;25119;1313;3069125;-59
2022/08/18 02:56:22;;;;;;;15.10;9.30;;;;;;;23.60;68.38;98691.68;25136;1313;3026661;-59
2022/08/18 02:58:52;;;;;;;20.10;8.90;;;;;;;23.45;68.90;98693.20;25133;1311;3052212;-58
2022/08/18 03:01:23;;;;;;;12.30;8.30;;;;;;;23.36;68.86;98696.70;25112;1313;3026389;-58
2022/08/18 03:03:53;;;;;;;10.80;5.40;;;;;;;23.34;68.76;98693.98;25083;1313;3026947;-58
2022/08/18 03:06:23;;;;;;;10.60;5.80;;;;;;;23.97;67.78;98693.15;25116;1313;3027203;-62
2022/08/18 03:08:53;;;;;;;11.30;7.30;;;;;;;24.54;66.14;98694.41;25092;1313;3028737;-57
2022/08/18 03:11:24;;;;;;;13.50;8.70;;;;;;;24.62;65.59;98690.29;25040;1313;3027066;-58
2022/08/18 03:13:55;;;;;;;14.60;9.20;;;;;;;24.51;65.65;98692.39;25017;1313;3025971;-60
2022/08/18 03:16:24;;;;;;;17.90;10.10;;;;;;;24.36;66.06;98694.95;25136;1311;3026235;-60
2022/08/18 03:18:53;;;;;;;16.00;10.90;;;;;;;24.14;66.76;98693.70;25095;1313;3026734;-60
2022/08/18 03:21:23;;;;;;;18.90;12.20;;;;;;;23.91;67.53;98697.83;25197;1313;3070955;-59
2022/08/18 03:23:53;;;;;;;17.60;12.20;;;;;;;23.67;68.16;98701.56;25220;1313;3026211;-59
2022/08/18 03:26:23;;;;;;;20.50;12.20;;;;;;;23.39;69.35;98698.06;25135;1313;3026460;-60
2022/08/18 03:28:52;;;;;;;10.90;7.80;;;;;;;22.93;71.49;98703.05;25061;1313;3027424;-58
2022/08/18 03:31:23;;;;;;;17.80;8.70;;;;;;;23.46;69.99;98700.05;25055;1313;3026598;-60
2022/08/18 03:33:52;;;;;;;16.40;8.90;;;;;;;24.07;68.28;98694.05;25159;1313;3026967;-56
2022/08/18 03:36:23;;;;;;;14.80;9.90;;;;;;;24.27;67.39;98692.64;25099;1313;3026382;-60
2022/08/18 03:38:53;;;;;;;17.60;11.10;;;;;;;24.22;67.34;98687.14;25112;1313;3056355;-58
2022/08/18 03:41:23;;;;;;;16.20;11.10;;;;;;;24.08;67.57;98688.52;25034;1313;3027312;-58
2022/08/18 03:43:52;;;;;;;22.20;13.00;;;;;;;23.95;67.76;98698.07;25061;1313;3026876;-58
2022/08/18 03:46:23;;;;;;;17.80;12.20;;;;;;;23.79;68.12;98703.52;25108;1313;3025959;-57
2022/08/18 03:48:55;;;;;;;14.40;10.60;;;;;;;23.66;67.71;98702.29;25126;1313;3049415;-61
2022/08/18 03:51:26;;;;;;;14.80;7.50;;;;;;;23.56;68.43;98707.63;25104;1313;3026869;-59
2022/08/18 03:53:59;;;;;;;12.20;8.50;;;;;;;24.08;67.93;98703.91;25098;1313;3027793;-56
2022/08/18 03:56:32;;;;;;;15.50;8.80;;;;;;;24.48;66.85;98703.08;25089;1313;3026619;-60
2022/08/18 03:59:04;;;;;;;15.50;10.50;;;;;;;24.49;66.27;98704.94;25111;1313;3049161;-62
2022/08/18 04:01:38;;;;;;;16.00;10.00;;;;;;;24.33;66.34;98705.46;25051;1313;3026614;-61
2022/08/18 04:04:09;;;;;;;19.70;11.70;;;;;;;24.14;66.53;98705.67;25103;1313;3027229;-60
2022/08/18 04:06:44;;;;;;;18.70;11.10;;;;;;;23.85;67.49;98709.92;25108;1313;3026978;-60
2022/08/18 04:09:14;;;;;;;18.50;10.90;;;;;;;23.63;68.31;98709.29;25049;1313;3047903;-59
2022/08/18 04:11:44;;;;;;;12.20;7.50;;;;;;;23.53;68.86;98707.98;25071;1316;3026605;-59
2022/08/18 04:14:15;;;;;;;17.90;9.70;;;;;;;24.04;68.07;98701.50;25063;1313;3027582;-60
2022/08/18 04:16:45;;;;;;;15.40;9.20;;;;;;;24.50;66.54;98701.30;25072;1312;3026960;-59
2022/08/18 04:19:15;;;;;;;17.90;10.80;;;;;;;24.45;66.44;98706.24;25073;1313;3026304;-61
2022/08/18 04:21:44;;;;;;;18.00;11.80;;;;;;;24.38;66.71;98708.83;25148;1313;3027246;-59
2022/08/18 04:24:13;;;;;;;17.10;11.20;;;;;;;24.30;66.87;98716.14;25081;1313;3028130;-62
2022/08/18 04:26:44;;;;;;;16.40;11.20;;;;;;;24.14;67.50;98716.90;25114;1313;3026789;-60
2022/08/18 04:29:15;;;;;;;21.60;11.80;;;;;;;24.02;67.57;98720.31;25082;1313;3051772;-60
2022/08/18 04:31:45;;;;;;;19.00;11.90;;;;;;;23.97;67.60;98720.95;25121;1312;3026449;-59
2022/08/18 04:34:14;;;;;;;12.40;7.30;;;;;;;23.88;68.28;98718.65;25066;1312;3026533;-59
2022/08/18 04:36:43;;;;;;;13.70;8.20;;;;;;;24.40;67.71;98710.11;25080;1311;3054690;-60
2022/08/18 04:39:12;;;;;;;17.20;9.80;;;;;;;24.86;65.56;98708.44;25166;1312;3026773;-59
2022/08/18 04:41:42;;;;;;;19.20;9.80;;;;;;;25.00;65.35;98707.77;25052;1312;3048784;-61
2022/08/18 04:44:11;;;;;;;19.50;10.60;;;;;;;24.99;65.05;98708.50;25140;1312;3026476;-58
2022/08/18 04:46:42;;;;;;;14.80;9.30;;;;;;;24.92;64.79;98707.95;25155;1312;3026367;-60
2022/08/18 04:49:11;;;;;;;15.20;9.10;;;;;;;24.84;64.79;98708.69;25126;1313;3026560;-61
2022/08/18 04:54:37;;;;;;;15.60;9.10;;;;;;;24.70;64.70;98706.30;25138;1312;3054914;-61
2022/08/18 04:57:16;;;;;;;14.70;9.50;;;;;;;24.65;64.89;98709.23;25086;1313;3026732;-59
2022/08/18 04:59:47;;;;;;;17.00;9.10;;;;;;;24.64;64.36;98709.48;25065;1312;3050694;-59
2022/08/18 05:02:17;;;;;;;14.70;9.30;;;;;;;24.60;64.54;98708.48;25143;1313;3026562;-60
2022/08/18 05:04:46;;;;;;;10.00;6.30;;;;;;;24.65;65.08;98706.86;25188;1313;3026591;-59
2022/08/18 05:07:18;;;;;;;18.70;8.40;;;;;;;25.29;64.90;98710.50;25083;1313;3027245;-58
2022/08/18 05:09:47;;;;;;;13.20;8.80;;;;;;;25.85;63.33;98713.64;25150;1313;3026545;-57
2022/08/18 05:12:16;;;;;;;19.60;10.40;;;;;;;25.93;63.00;98713.04;25091;1313;3026527;-62
2022/08/18 05:14:45;;;;;;;15.60;10.40;;;;;;;25.84;63.17;98711.12;25070;1312;3070347;-59
2022/08/18 05:17:14;;;;;;;15.80;10.20;;;;;;;25.78;63.13;98712.79;25137;1313;3026636;-58
2022/08/18 05:19:44;;;;;;;13.20;9.10;;;;;;;25.73;63.17;98713.83;25046;1313;3052417;-61
2022/08/18 05:22:16;;;;;;;18.20;10.10;;;;;;;25.68;63.00;98716.29;25076;1312;3028787;-59
2022/08/18 05:24:45;;;;;;;16.80;10.20;;;;;;;25.57;63.17;98714.77;25102;1313;3027310;-61
2022/08/18 05:27:14;;;;;;;16.20;8.80;;;;;;;25.45;63.47;98709.93;25120;1313;3027059;-58
2022/08/18 05:29:44;;;;;;;16.40;9.90;;;;;;;25.40;63.35;98710.77;25066;1313;3069411;-63
2022/08/18 05:32:13;;;;;;;14.10;9.10;;;;;;;25.35;64.05;98712.51;25121;1313;3026321;-61
2022/08/18 05:34:47;;;;;;;20.00;11.00;;;;;;;25.36;64.14;98712.22;25254;1313;3026248;-59
2022/08/18 05:37:34;;;;;;;12.70;8.80;;;;;;;25.35;63.79;98708.02;25159;1313;3071343;-60
2022/08/18 05:40:05;;;;;;;16.60;9.40;;;;;;;25.36;62.70;98709.61;25123;1313;3051314;-61
2022/08/18 05:42:37;;;;;;;17.70;9.70;;;;;;;25.39;63.27;98708.91;25163;1312;3026664;-61
2022/08/18 05:45:10;;;;;;;15.10;8.60;;;;;;;25.39;63.31;98711.60;25182;1312;3026616;-61
2022/08/18 05:47:40;;;;;;;16.90;10.40;;;;;;;25.45;62.72;98711.77;25113;1315;3029798;-62
2022/08/18 05:50:16;;;;;;;16.10;9.80;;;;;;;25.45;62.76;98711.34;25163;1312;3026872;-58
2022/08/18 05:52:55;;;;;;;16.00;9.40;;;;;;;25.51;62.73;98709.18;25130;1313;3053050;-61
2022/08/18 05:58:36;;;;;;;17.20;10.00;;;;;;;25.56;61.41;98714.73;25109;1313;3049402;-61
2022/08/18 06:01:21;;;;;;;17.60;9.70;;;;;;;25.58;61.42;98717.91;25074;1313;3054664;-62
2022/08/18 06:03:53;;;;;;;12.60;8.90;;;;;;;25.67;61.06;98715.75;25067;1313;3051591;-58
2022/08/18 06:06:24;;;;;;;12.90;8.30;;;;;;;25.72;60.42;98715.20;25105;1312;3026592;-59
2022/08/18 06:09:14;;;;;;;13.70;7.90;;;;;;;25.78;59.31;98715.55;25078;1313;3026394;-57
2022/08/18 06:11:44;;;;;;;13.10;8.00;;;;;;;25.87;58.95;98713.46;25105;1313;3052340;-63
2022/08/18 06:14:14;;;;;;;16.90;9.20;;;;;;;25.93;59.29;98713.95;25067;1312;3026838;-62
2022/08/18 06:16:56;;;;;;;16.70;9.50;;;;;;;26.01;59.78;98717.29;25073;1313;3026723;-61
2022/08/18 06:19:40;;;;;;;15.20;9.40;;;;;;;26.07;59.79;98718.67;25046;1312;3051055;-61
2022/08/18 06:22:16;;;;;;;15.80;10.20;;;;;;;26.15;59.59;98720.95;25087;1312;3056240;-62
2022/08/18 06:25:15;;;;;;;15.80;11.00;;;;;;;26.22;59.68;98719.39;25062;1313;3052070;-63
2022/08/18 06:27:54;;;;;;;20.10;14.80;;;;;;;26.29;59.13;98717.50;25128;1313;3069124;-59
2022/08/18 06:30:40;;;;;;;22.70;13.40;;;;;;;26.32;59.00;98723.16;25101;1311;3047941;-61
2022/08/18 06:33:34;;;;;;;21.60;12.30;;;;;;;26.35;59.10;98721.70;25287;1312;3052587;-58
2022/08/18 06:36:22;;;;;;;18.20;11.90;;;;;;;26.40;59.51;98720.64;25111;1313;3052400;-63
2022/08/18 06:39:12;;;;;;;21.20;11.60;;;;;;;26.40;59.17;98723.00;25135;1313;3057592;-58
2022/08/18 06:41:47;;;;;;;17.60;12.30;;;;;;;26.49;58.77;98722.39;25095;1313;3051567;-61
2022/08/18 06:44:42;;;;;;;17.90;11.00;;;;;;;26.57;58.28;98720.85;25075;1316;3052700;-59
2022/08/18 06:47:46;;;;;;;22.60;11.90;;;;;;;26.67;58.16;98717.64;25050;1313;3055095;-59
2022/08/18 06:50:37;;;;;;;19.10;12.30;;;;;;;26.76;58.10;98717.45;25097;1313;3071029;-61
2022/08/18 06:53:06;;;;;;;16.90;10.80;;;;;;;26.78;57.82;98718.85;25107;1313;3049306;-60
2022/08/18 06:55:38;;;;;;;16.60;11.40;;;;;;;26.86;57.00;98718.48;25166;1312;3026980;-63
2022/08/18 06:58:12;;;;;;;17.90;11.20;;;;;;;26.95;56.42;98717.98;25141;1316;3026446;-60
2022/08/18 07:01:04;;;;;;;15.50;11.10;;;;;;;26.94;56.29;98718.92;25101;1313;3056114;-59
2022/08/18 07:03:38;;;;;;;18.90;12.80;;;;;;;27.00;55.89;98717.30;25123;1313;3049869;-58
2022/08/18 07:06:10;;;;;;;21.30;13.20;;;;;;;27.05;55.95;98719.05;25130;1312;3026847;-60
2022/08/18 07:08:42;;;;;;;17.30;12.00;;;;;;;27.15;55.59;98724.27;25104;1313;3053508;-64
2022/08/18 07:11:22;;;;;;;16.00;10.80;;;;;;;27.19;54.83;98724.25;25079;1313;3029987;-64
2022/08/18 07:13:56;;;;;;;15.60;10.40;;;;;;;27.28;54.52;98723.14;25177;1312;3051822;-60
2022/08/18 07:16:26;;;;;;;14.20;10.50;;;;;;;27.34;53.68;98722.09;25122;1313;3051993;-59
2022/08/18 07:19:06;;;;;;;16.30;10.80;;;;;;;27.39;53.64;98722.62;25138;1313;3026371;-60
2022/08/18 07:21:36;;;;;;;14.20;9.90;;;;;;;27.37;53.03;98723.41;25205;1312;3049509;-60
2022/08/18 07:24:11;;;;;;;13.80;9.60;;;;;;;27.37;53.02;98723.13;25235;1313;3026628;-59
2022/08/18 07:27:00;;;;;;;15.50;9.90;;;;;;;27.34;53.91;98725.34;25195;1313;3052451;-60
2022/08/18 07:29:33;;;;;;;13.50;9.40;;;;;;;27.41;53.41;98721.95;25110;1313;3059141;-60
2022/08/18 07:32:12;;;;;;;16.20;8.90;;;;;;;27.50;53.13;98720.54;25124;1313;3026349;-61
2022/08/18 07:34:45;;;;;;;17.80;9.20;;;;;;;27.57;53.40;98713.40;25045;1313;3054858;-58
2022/08/18 07:37:22;;;;;;;13.40;9.50;;;;;;;27.67;53.67;98718.05;25200;1312;3028268;-59
2022/08/18 07:39:58;;;;;;;14.70;10.90;;;;;;;27.80;52.80;98715.63;25111;1313;3070268;-60
2022/08/18 07:42:38;;;;;;;17.60;8.70;;;;;;;27.79;52.21;98716.80;25140;1316;3051222;-60
2022/08/18 07:45:26;;;;;;;11.70;8.10;;;;;;;27.88;52.07;98715.55;25090;1313;3053183;-60
2022/08/18 07:48:31;;;;;;;11.00;7.10;;;;;;;28.08;50.93;98719.42;25092;1313;3055738;-61
2022/08/18 07:51:09;;;;;;;13.70;8.40;;;;;;;28.19;50.65;98716.64;25097;1313;3058758;-61
2022/08/18 07:53:56;;;;;;;19.40;8.60;;;;;;;28.29;50.43;98711.52;25150;1313;3052504;-59
2022/08/18 07:56:43;;;;;;;17.50;7.50;;;;;;;28.41;49.59;98708.98;25120;1313;3052341;-59
2022/08/18 07:59:17;;;;;;;13.00;8.70;;;;;;;28.52;49.43;98705.54;25120;1313;3051159;-57
2022/08/18 08:01:48;;;;;;;13.10;8.40;;;;;;;28.51;48.57;98700.28;25092;1313;3071381;-62
2022/08/18 08:04:25;;;;;;;12.40;7.90;;;;;;;28.66;48.26;98696.86;25075;1313;3026802;-60
2022/08/18 08:07:08;;;;;;;11.30;7.10;;;;;;;28.74;48.25;98693.23;25111;1313;3052886;-57
2022/08/18 08:10:02;;;;;;;9.70;6.50;;;;;;;28.90;48.55;98689.38;25132;1313;3055418;-60
2022/08/18 08:13:05;;;;;;;11.30;7.50;;;;;;;28.95;48.11;98687.40;25104;1313;3057939;-59
2022/08/18 08:16:04;;;;;;;12.50;7.90;;;;;;;28.98;48.91;98684.48;25066;1313;3049831;-59
2022/08/18 08:18:39;;;;;;;8.90;6.60;;;;;;;29.10;47.61;98691.16;25096;1313;3055378;-62
2022/08/18 08:21:18;;;;;;;9.90;7.40;;;;;;;29.19;47.28;98689.75;25170;1313;3051337;-59
2022/08/18 08:23:59;;;;;;;13.10;7.70;;;;;;;29.08;47.14;98688.53;25090;1313;3069202;-63
2022/08/18 08:26:36;;;;;;;10.80;6.80;;;;;;;29.05;46.35;98689.36;25117;1313;3052527;-60
2022/08/18 08:29:24;;;;;;;8.20;6.20;;;;;;;29.14;46.43;98687.26;25203;1313;3051798;-61
2022/08/18 08:32:15;;;;;;;8.40;6.60;;;;;;;29.10;45.93;98679.87;25168;1313;3055233;-58
2022/08/18 08:35:06;;;;;;;12.80;7.50;;;;;;;29.14;46.40;98677.53;25107;1313;3059260;-61
2022/08/18 08:37:38;;;;;;;12.10;7.10;;;;;;;29.26;45.78;98681.08;25112;1313;3050874;-61
2022/08/18 08:40:23;;;;;;;10.70;6.40;;;;;;;29.29;45.09;98676.76;25117;1313;3026312;-58
2022/08/18 08:43:06;;;;;;;11.20;6.50;;;;;;;29.13;44.93;98679.28;25192;1313;3051790;-58
2022/08/18 08:45:43;;;;;;;11.80;6.30;;;;;;;29.19;45.07;98673.53;25107;1313;3069490;-61
2022/08/18 08:48:16;;;;;;;10.80;7.20;;;;;;;29.41;45.35;98674.73;25130;1313;3053494;-58
2022/08/18 08:50:53;;;;;;;9.10;6.40;;;;;;;29.53;44.77;98668.71;25086;1313;3051398;-62
2022/08/18 08:53:42;;;;;;;11.90;6.60;;;;;;;29.79;43.96;98671.70;25165;1313;3054033;-62
2022/08/18 08:56:16;;;;;;;10.30;6.00;;;;;;;30.00;43.43;98672.51;25097;1313;3058796;-58
2022/08/18 08:58:57;;;;;;;8.00;6.30;;;;;;;30.15;42.74;98672.80;25111;1316;3049756;-59
2022/08/18 09:01:32;;;;;;;8.90;6.30;;;;;;;30.29;43.13;98667.98;25171;1313;3055299;-60
2022/08/18 09:04:32;;;;;;;9.90;6.80;;;;;;;30.51;43.77;98666.29;25148;1313;3052054;-58
2022/08/18 09:07:26;;;;;;;8.70;5.80;;;;;;;30.73;43.64;98666.08;25114;1313;3071649;-58
2022/08/18 09:10:04;;;;;;;7.30;5.60;;;;;;;30.89;42.14;98668.75;25154;1312;3048882;-61
2022/08/18 09:12:53;;;;;;;10.90;6.40;;;;;;;31.02;41.52;98663.77;25214;1313;3053216;-64
2022/08/18 09:15:22;;;;;;;9.30;6.30;;;;;;;31.12;41.06;98665.67;25155;1313;3055348;-59
2022/08/18 09:18:05;;;;;;;8.60;6.20;;;;;;;31.21;40.90;98659.73;25106;1313;3026336;-58
2022/08/18 09:20:57;;;;;;;9.10;6.30;;;;;;;31.30;40.89;98662.96;25092;1313;3054809;-60
2022/08/18 09:23:48;;;;;;;8.40;6.20;;;;;;;31.45;40.90;98661.50;25149;1313;3055295;-60
2022/08/18 09:26:24;;;;;;;10.60;6.00;;;;;;;31.52;38.90;98663.11;25129;1312;3057686;-64
2022/08/18 09:28:55;;;;;;;8.90;5.90;;;;;;;31.61;39.11;98666.35;25255;1313;3049652;-62
2022/08/18 09:31:25;;;;;;;9.30;6.10;;;;;;;31.65;38.62;98659.96;25104;1313;3026591;-61
2022/08/18 09:34:20;;;;;;;8.60;6.50;;;;;;;31.72;39.02;98661.52;25092;1316;3026891;-60
2022/08/18 09:37:01;;;;;;;7.90;6.40;;;;;;;31.70;39.60;98661.05;25090;1313;3068720;-60
2022/08/18 09:42:32;;;;;;;14.20;6.90;;;;;;;31.95;38.30;98663.21;25149;1316;3052200;-60
2022/08/18 09:45:07;;;;;;;9.50;6.70;;;;;;;31.94;38.40;98663.64;25119;1311;3053290;-59
2022/08/18 09:47:37;;;;;;;8.50;6.40;;;;;;;32.12;38.80;98660.98;25153;1313;3057622;-58
2022/08/18 09:50:12;;;;;;;9.40;6.60;;;;;;;32.33;39.94;98651.51;25123;1313;3026093;-59
2022/08/18 09:52:41;;;;;;;8.00;6.10;;;;;;;32.44;39.57;98651.03;25143;1313;3053470;-61
2022/08/18 09:55:16;;;;;;;8.70;6.10;;;;;;;32.42;39.33;98654.64;25118;1313;3026756;-60
2022/08/18 09:57:46;;;;;;;10.90;6.00;;;;;;;32.22;39.85;98655.61;25120;1313;3055196;-62
2022/08/18 10:00:27;;;;;;;7.70;5.80;;;;;;;32.03;40.14;98657.55;25081;1312;3026809;-61
2022/08/18 10:02:56;;;;;;;10.30;5.70;;;;;;;32.09;40.18;98655.95;25171;1313;3056588;-61
2022/08/18 10:05:26;;;;;;;7.10;5.90;;;;;;;32.21;39.83;98650.73;25170;1313;3026865;-62
2022/08/18 10:08:00;;;;;;;9.00;5.90;;;;;;;32.39;38.98;98643.36;25092;1313;3055439;-63
2022/08/18 10:10:29;;;;;;;;;;;;;;;32.53;38.23;98639.91;25155;1313;3056755;-61
2022/08/18 10:13:20;;;;;;;10.10;6.00;;;;;;;32.66;38.47;98639.27;25109;1313;3026355;-61
2022/08/18 10:16:20;;;;;;;7.40;5.70;;;;;;;32.89;38.65;98637.27;25112;1313;3053392;-63
2022/08/18 10:18:55;;;;;;;6.40;5.40;;;;;;;33.08;37.99;98627.88;25079;1313;3059322;-62
2022/08/18 10:21:27;;;;;;;10.30;6.70;;;;;;;33.22;37.01;98625.59;25160;1313;3049968;-60
2022/08/18 10:24:18;;;;;;;8.70;5.90;;;;;;;33.19;37.14;98625.50;25119;1313;3027013;-61
2022/08/18 10:26:50;;;;;;;7.90;6.00;;;;;;;33.24;37.32;98620.87;25141;1312;3051137;-62
2022/08/18 10:29:28;;;;;;;8.50;5.90;;;;;;;33.28;37.46;98620.58;25166;1313;3026483;-60
2022/08/18 10:31:57;;;;;;;7.60;5.50;;;;;;;33.32;37.36;98623.71;25067;1313;3053074;-62
2022/08/18 10:34:40;;;;;;;8.50;5.70;;;;;;;33.38;37.43;98623.48;24442;1313;4420304;-60
2022/08/18 10:37:38;;;;;;;8.20;5.60;;;;;;;33.36;36.69;98629.77;25118;1313;3070787;-60
2022/08/18 10:40:07;;;;;;;6.90;5.10;;;;;;;33.38;36.69;98629.79;25077;1313;3051031;-61
2022/08/18 10:42:39;;;;;;;9.60;6.40;;;;;;;33.31;36.29;98625.89;25293;1313;3026717;-61
2022/08/18 10:45:18;;;;;;;8.60;5.90;;;;;;;33.23;36.59;98629.84;25135;1313;3070967;-60
2022/08/18 10:47:57;;;;;;;8.10;6.10;;;;;;;33.30;35.40;98630.81;25083;1313;3047741;-61
2022/08/18 10:50:26;;;;;;;7.40;5.60;;;;;;;33.06;35.61;98637.48;25141;1313;3052511;-60
2022/08/18 10:53:20;;;;;;;8.90;5.50;;;;;;;33.17;35.89;98634.96;25074;1313;3026407;-61
2022/08/18 10:56:00;;;;;;;;;;;;;;;33.32;36.03;98629.68;25041;1313;3055562;-61
2022/08/18 10:58:39;;;;;;;7.40;5.30;;;;;;;33.43;36.34;98628.63;25124;1313;3053173;-61
2022/08/18 11:01:30;;;;;;;9.60;5.20;;;;;;;33.50;36.11;98631.05;25079;1313;3054815;-59
2022/08/18 11:04:24;;;;;;;11.00;5.00;;;;;;;33.60;36.29;98631.05;25097;1312;3053556;-60
2022/08/18 11:07:10;;;;;;;7.80;5.70;;;;;;;33.67;35.89;98630.31;25053;1313;3070923;-61
2022/08/18 11:09:42;;;;;;;7.60;5.70;;;;;;;33.50;36.25;98638.13;25141;1313;3052064;-60
2022/08/18 11:12:12;;;;;;;8.30;5.40;;;;;;;33.23;36.95;98635.52;25124;1317;3026223;-63
2022/08/18 11:15:20;;;;;;;7.20;5.60;;;;;;;32.82;36.47;98636.88;25083;1313;3027439;-62
2022/08/18 11:18:16;;;;;;;8.20;5.90;;;;;;;32.47;37.61;98631.58;25084;1312;3058490;-61
2022/08/18 11:20:45;;;;;;;8.80;5.40;;;;;;;32.32;38.22;98631.39;25134;1312;3050151;-61
2022/08/18 11:23:15;;;;;;;6.70;5.10;;;;;;;32.13;39.35;98639.98;25158;1313;3026672;-61
2022/08/18 11:25:44;;;;;;;6.90;5.40;;;;;;;31.97;39.28;98639.13;25162;1313;3026979;-62
2022/08/18 11:28:18;;;;;;;7.10;4.70;;;;;;;31.82;39.44;98640.36;25142;1313;3027034;-61
2022/08/18 11:30:47;;;;;;;;;;;;;;;31.66;39.43;98640.20;25128;1312;3055231;-60
2022/08/18 11:33:17;;;;;;;9.50;5.30;;;;;;;31.38;39.74;98640.39;25116;1313;3026627;-60
2022/08/18 11:35:56;;;;;;;9.00;5.80;;;;;;;31.31;40.09;98638.94;25162;1313;3026278;-61
2022/08/18 11:38:29;;;;;;;6.50;4.90;;;;;;;31.22;40.37;98638.00;25062;1315;3053815;-59
2022/08/18 11:41:15;;;;;;;9.00;6.30;;;;;;;31.00;41.29;98645.67;25127;1315;3026460;-59
2022/08/18 11:43:44;;;;;;;10.20;6.20;;;;;;;30.34;44.44;98644.17;25099;1313;3056187;-61
2022/08/18 11:46:20;;;;;;;10.70;6.60;;;;;;;29.96;46.59;98645.77;25228;1313;3026739;-61
2022/08/18 11:48:49;;;;;;;9.60;6.20;;;;;;;29.33;49.12;98643.90;25189;1313;3052522;-61
2022/08/18 11:51:30;;;;;;;8.00;6.80;;;;;;;29.27;49.39;98647.98;25184;1313;3026516;-61
2022/08/18 11:54:00;;;;;;;15.50;6.50;;;;;;;29.26;49.22;98650.62;25164;1313;3058872;-60
2022/08/18 11:56:33;;;;;;;10.10;6.60;;;;;;;29.15;49.55;98652.30;25112;1313;3026740;-60
2022/08/18 12:00:36;;;;;;;9.60;6.40;;;;;;;29.08;49.46;98654.41;31510;1318;3026112;-60
2022/08/18 12:03:08;;;;;;;12.80;8.10;;;;;;;29.04;49.66;98655.33;25006;1319;3051657;-58